sensor_id;sensor_type;location;lat;lon;timestamp;P1;durP1;ratioP1;P2;durP2;ratioP2
36575;SDS011;45700;50.930;5.168;2022-11-20T00:02:42;13.02;;;5.47;;
36575;SDS011;45700;50.930;5.168;2022-11-20T00:06:43;16.10;;;7.07;;
36575;SDS011;45700;50.930;5.168;2022-11-20T00:10:44;17.80;;;7.43;;
36575;SDS011;45700;50.930;5.168;2022-11-20T00:14:45;15.63;;;6.47;;
36575;SDS011;45700;50.930;5.168;2022-11-20T00:18:46;18.48;;;6.53;;
36575;SDS011;45700;50.930;5.168;2022-11-20T00:22:47;14.73;;;6.65;;
36575;SDS011;45700;50.930;5.168;2022-11-20T00:26:48;16.95;;;6.95;;
36575;SDS011;45700;50.930;5.168;2022-11-20T00:30:49;14.93;;;7.22;;
36575;SDS011;45700;50.930;5.168;2022-11-20T00:34:50;17.20;;;8.38;;
36575;SDS011;45700;50.930;5.168;2022-11-20T00:38:52;13.23;;;6.47;;
36575;SDS011;45700;50.930;5.168;2022-11-20T00:42:54;9.35;;;4.05;;
36575;SDS011;45700;50.930;5.168;2022-11-20T00:46:55;15.20;;;6.47;;
36575;SDS011;45700;50.930;5.168;2022-11-20T00:50:56;12.10;;;6.40;;
36575;SDS011;45700;50.930;5.168;2022-11-20T00:54:57;12.05;;;6.07;;
36575;SDS011;45700;50.930;5.168;2022-11-20T00:58:59;17.08;;;6.63;;
36575;SDS011;45700;50.930;5.168;2022-11-20T01:03:00;12.98;;;7.15;;
36575;SDS011;45700;50.930;5.168;2022-11-20T01:07:01;15.35;;;6.78;;
36575;SDS011;45700;50.930;5.168;2022-11-20T01:11:04;13.07;;;7.00;;
36575;SDS011;45700;50.930;5.168;2022-11-20T01:15:05;17.40;;;6.18;;
36575;SDS011;45700;50.930;5.168;2022-11-20T01:19:10;14.38;;;5.75;;
36575;SDS011;45700;50.930;5.168;2022-11-20T01:23:11;10.80;;;4.80;;
36575;SDS011;45700;50.930;5.168;2022-11-20T01:27:12;11.15;;;5.20;;
36575;SDS011;45700;50.930;5.168;2022-11-20T01:31:14;11.57;;;6.05;;
36575;SDS011;45700;50.930;5.168;2022-11-20T01:35:15;14.68;;;5.05;;
36575;SDS011;45700;50.930;5.168;2022-11-20T01:39:21;12.88;;;6.93;;
36575;SDS011;45700;50.930;5.168;2022-11-20T01:43:22;15.43;;;6.15;;
36575;SDS011;45700;50.930;5.168;2022-11-20T01:47:39;16.20;;;5.90;;
36575;SDS011;45700;50.930;5.168;2022-11-20T01:51:45;21.27;;;6.93;;
36575;SDS011;45700;50.930;5.168;2022-11-20T01:55:48;14.63;;;6.28;;
36575;SDS011;45700;50.930;5.168;2022-11-20T01:59:54;17.27;;;6.22;;
36575;SDS011;45700;50.930;5.168;2022-11-20T02:03:57;10.10;;;5.90;;
36575;SDS011;45700;50.930;5.168;2022-11-20T02:07:59;11.63;;;6.95;;
36575;SDS011;45700;50.930;5.168;2022-11-20T02:12:00;13.05;;;5.85;;
36575;SDS011;45700;50.930;5.168;2022-11-20T02:16:01;11.07;;;5.43;;
36575;SDS011;45700;50.930;5.168;2022-11-20T02:20:03;12.88;;;6.10;;
36575;SDS011;45700;50.930;5.168;2022-11-20T02:24:05;12.95;;;6.28;;
36575;SDS011;45700;50.930;5.168;2022-11-20T02:28:07;13.32;;;6.05;;
36575;SDS011;45700;50.930;5.168;2022-11-20T02:36:39;9.80;;;6.25;;
36575;SDS011;45700;50.930;5.168;2022-11-20T02:40:42;16.70;;;7.00;;
36575;SDS011;45700;50.930;5.168;2022-11-20T02:44:43;17.48;;;6.07;;
36575;SDS011;45700;50.930;5.168;2022-11-20T02:48:44;19.20;;;6.10;;
36575;SDS011;45700;50.930;5.168;2022-11-20T02:52:45;18.75;;;6.35;;
36575;SDS011;45700;50.930;5.168;2022-11-20T02:56:46;20.65;;;7.25;;
36575;SDS011;45700;50.930;5.168;2022-11-20T03:00:47;16.45;;;7.88;;
36575;SDS011;45700;50.930;5.168;2022-11-20T03:04:48;13.48;;;5.55;;
36575;SDS011;45700;50.930;5.168;2022-11-20T03:08:49;12.32;;;5.80;;
36575;SDS011;45700;50.930;5.168;2022-11-20T03:12:56;15.38;;;7.82;;
36575;SDS011;45700;50.930;5.168;2022-11-20T03:16:57;12.85;;;5.93;;
36575;SDS011;45700;50.930;5.168;2022-11-20T03:20:58;15.10;;;6.90;;
36575;SDS011;45700;50.930;5.168;2022-11-20T03:24:59;20.88;;;6.10;;
36575;SDS011;45700;50.930;5.168;2022-11-20T03:29:02;15.27;;;6.35;;
36575;SDS011;45700;50.930;5.168;2022-11-20T03:33:04;14.98;;;5.93;;
36575;SDS011;45700;50.930;5.168;2022-11-20T03:37:05;14.98;;;7.32;;
36575;SDS011;45700;50.930;5.168;2022-11-20T03:41:07;17.17;;;8.50;;
36575;SDS011;45700;50.930;5.168;2022-11-20T03:45:09;9.57;;;5.30;;
36575;SDS011;45700;50.930;5.168;2022-11-20T03:49:10;20.20;;;7.57;;
36575;SDS011;45700;50.930;5.168;2022-11-20T03:53:11;23.63;;;7.82;;
36575;SDS011;45700;50.930;5.168;2022-11-20T03:57:12;15.57;;;8.60;;
36575;SDS011;45700;50.930;5.168;2022-11-20T04:01:14;20.73;;;8.93;;
36575;SDS011;45700;50.930;5.168;2022-11-20T04:05:16;20.75;;;6.47;;
36575;SDS011;45700;50.930;5.168;2022-11-20T04:09:17;20.45;;;8.55;;
36575;SDS011;45700;50.930;5.168;2022-11-20T04:13:18;16.88;;;8.23;;
36575;SDS011;45700;50.930;5.168;2022-11-20T04:17:19;22.58;;;8.68;;
36575;SDS011;45700;50.930;5.168;2022-11-20T04:21:20;16.50;;;8.02;;
36575;SDS011;45700;50.930;5.168;2022-11-20T04:25:21;18.33;;;7.55;;
36575;SDS011;45700;50.930;5.168;2022-11-20T04:29:22;19.60;;;9.48;;
36575;SDS011;45700;50.930;5.168;2022-11-20T04:33:23;16.33;;;7.15;;
36575;SDS011;45700;50.930;5.168;2022-11-20T04:37:24;21.38;;;8.63;;
36575;SDS011;45700;50.930;5.168;2022-11-20T04:41:26;21.17;;;8.68;;
36575;SDS011;45700;50.930;5.168;2022-11-20T04:45:27;16.50;;;8.52;;
36575;SDS011;45700;50.930;5.168;2022-11-20T04:49:28;29.30;;;7.63;;
36575;SDS011;45700;50.930;5.168;2022-11-20T04:53:31;32.67;;;8.35;;
36575;SDS011;45700;50.930;5.168;2022-11-20T04:57:32;17.02;;;9.23;;
36575;SDS011;45700;50.930;5.168;2022-11-20T05:01:33;24.35;;;8.60;;
36575;SDS011;45700;50.930;5.168;2022-11-20T05:05:34;32.08;;;8.80;;
36575;SDS011;45700;50.930;5.168;2022-11-20T05:09:35;17.63;;;8.25;;
36575;SDS011;45700;50.930;5.168;2022-11-20T05:13:36;22.35;;;10.27;;
36575;SDS011;45700;50.930;5.168;2022-11-20T05:17:37;23.67;;;10.85;;
36575;SDS011;45700;50.930;5.168;2022-11-20T05:21:38;26.45;;;8.98;;
36575;SDS011;45700;50.930;5.168;2022-11-20T05:25:39;24.92;;;10.48;;
36575;SDS011;45700;50.930;5.168;2022-11-20T05:29:40;14.75;;;7.93;;
36575;SDS011;45700;50.930;5.168;2022-11-20T05:33:42;31.95;;;11.50;;
36575;SDS011;45700;50.930;5.168;2022-11-20T05:37:43;21.50;;;7.95;;
36575;SDS011;45700;50.930;5.168;2022-11-20T05:41:44;16.67;;;6.32;;
36575;SDS011;45700;50.930;5.168;2022-11-20T05:45:52;22.85;;;9.77;;
36575;SDS011;45700;50.930;5.168;2022-11-20T05:49:53;22.20;;;8.60;;
36575;SDS011;45700;50.930;5.168;2022-11-20T05:53:57;28.67;;;10.50;;
36575;SDS011;45700;50.930;5.168;2022-11-20T05:57:58;32.38;;;11.35;;
36575;SDS011;45700;50.930;5.168;2022-11-20T06:01:59;23.73;;;8.45;;
36575;SDS011;45700;50.930;5.168;2022-11-20T06:06:00;28.70;;;8.82;;
36575;SDS011;45700;50.930;5.168;2022-11-20T06:10:01;34.72;;;8.98;;
36575;SDS011;45700;50.930;5.168;2022-11-20T06:14:02;22.40;;;8.48;;
36575;SDS011;45700;50.930;5.168;2022-11-20T06:18:03;23.67;;;8.65;;
36575;SDS011;45700;50.930;5.168;2022-11-20T06:22:04;21.48;;;7.78;;
36575;SDS011;45700;50.930;5.168;2022-11-20T06:26:07;25.30;;;8.68;;
36575;SDS011;45700;50.930;5.168;2022-11-20T06:30:08;17.17;;;7.22;;
36575;SDS011;45700;50.930;5.168;2022-11-20T06:34:09;30.38;;;11.57;;
36575;SDS011;45700;50.930;5.168;2022-11-20T06:38:10;23.15;;;9.05;;
36575;SDS011;45700;50.930;5.168;2022-11-20T06:42:11;24.58;;;10.95;;
36575;SDS011;45700;50.930;5.168;2022-11-20T06:46:12;5.25;;;1.75;;
36575;SDS011;45700;50.930;5.168;2022-11-20T06:50:14;3.97;;;3.20;;
36575;SDS011;45700;50.930;5.168;2022-11-20T06:54:14;4.68;;;3.30;;
36575;SDS011;45700;50.930;5.168;2022-11-20T06:58:16;8.32;;;5.22;;
36575;SDS011;45700;50.930;5.168;2022-11-20T07:02:17;2.03;;;1.80;;
36575;SDS011;45700;50.930;5.168;2022-11-20T07:06:18;8.55;;;4.47;;
36575;SDS011;45700;50.930;5.168;2022-11-20T07:10:19;6.25;;;4.00;;
36575;SDS011;45700;50.930;5.168;2022-11-20T07:14:20;5.22;;;3.80;;
36575;SDS011;45700;50.930;5.168;2022-11-20T07:18:21;8.23;;;3.22;;
36575;SDS011;45700;50.930;5.168;2022-11-20T07:22:22;2.15;;;1.95;;
36575;SDS011;45700;50.930;5.168;2022-11-20T07:26:23;2.95;;;2.72;;
36575;SDS011;45700;50.930;5.168;2022-11-20T07:30:24;1.88;;;1.75;;
36575;SDS011;45700;50.930;5.168;2022-11-20T07:34:25;10.55;;;2.70;;
36575;SDS011;45700;50.930;5.168;2022-11-20T07:38:26;4.28;;;2.17;;
36575;SDS011;45700;50.930;5.168;2022-11-20T07:42:27;16.15;;;3.60;;
36575;SDS011;45700;50.930;5.168;2022-11-20T07:46:28;5.93;;;1.27;;
36575;SDS011;45700;50.930;5.168;2022-11-20T07:50:29;4.03;;;3.60;;
36575;SDS011;45700;50.930;5.168;2022-11-20T07:54:30;1.98;;;1.20;;
36575;SDS011;45700;50.930;5.168;2022-11-20T07:58:31;15.40;;;4.82;;
36575;SDS011;45700;50.930;5.168;2022-11-20T08:02:36;1.75;;;1.65;;
36575;SDS011;45700;50.930;5.168;2022-11-20T08:06:37;9.75;;;4.95;;
36575;SDS011;45700;50.930;5.168;2022-11-20T08:10:38;2.42;;;2.22;;
36575;SDS011;45700;50.930;5.168;2022-11-20T08:14:39;4.95;;;1.67;;
36575;SDS011;45700;50.930;5.168;2022-11-20T08:18:40;3.10;;;1.25;;
36575;SDS011;45700;50.930;5.168;2022-11-20T08:22:41;1.25;;;1.25;;
36575;SDS011;45700;50.930;5.168;2022-11-20T08:26:42;1.13;;;1.05;;
36575;SDS011;45700;50.930;5.168;2022-11-20T08:30:43;5.72;;;3.00;;
36575;SDS011;45700;50.930;5.168;2022-11-20T08:34:45;9.52;;;2.15;;
36575;SDS011;45700;50.930;5.168;2022-11-20T08:38:50;5.10;;;1.73;;
36575;SDS011;45700;50.930;5.168;2022-11-20T08:42:51;2.78;;;2.58;;
36575;SDS011;45700;50.930;5.168;2022-11-20T08:46:52;7.05;;;2.40;;
36575;SDS011;45700;50.930;5.168;2022-11-20T08:50:53;2.45;;;1.98;;
36575;SDS011;45700;50.930;5.168;2022-11-20T08:54:57;1.02;;;1.02;;
36575;SDS011;45700;50.930;5.168;2022-11-20T08:58:58;1.15;;;1.15;;
36575;SDS011;45700;50.930;5.168;2022-11-20T09:03:00;2.85;;;1.88;;
36575;SDS011;45700;50.930;5.168;2022-11-20T09:07:01;4.32;;;2.40;;
36575;SDS011;45700;50.930;5.168;2022-11-20T09:11:02;2.40;;;2.03;;
36575;SDS011;45700;50.930;5.168;2022-11-20T09:15:04;2.45;;;2.33;;
36575;SDS011;45700;50.930;5.168;2022-11-20T09:19:05;3.90;;;3.55;;
36575;SDS011;45700;50.930;5.168;2022-11-20T09:23:06;2.20;;;2.00;;
36575;SDS011;45700;50.930;5.168;2022-11-20T09:27:07;0.60;;;0.60;;
36575;SDS011;45700;50.930;5.168;2022-11-20T09:31:09;3.35;;;2.08;;
36575;SDS011;45700;50.930;5.168;2022-11-20T09:35:10;6.07;;;3.50;;
36575;SDS011;45700;50.930;5.168;2022-11-20T09:39:11;10.60;;;4.40;;
36575;SDS011;45700;50.930;5.168;2022-11-20T09:43:20;3.30;;;1.50;;
36575;SDS011;45700;50.930;5.168;2022-11-20T09:55:47;4.78;;;1.95;;
36575;SDS011;45700;50.930;5.168;2022-11-20T09:59:50;2.35;;;2.25;;
36575;SDS011;45700;50.930;5.168;2022-11-20T10:16:24;5.32;;;4.90;;
36575;SDS011;45700;50.930;5.168;2022-11-20T10:29:03;3.20;;;2.85;;
36575;SDS011;45700;50.930;5.168;2022-11-20T10:33:11;4.57;;;1.50;;
36575;SDS011;45700;50.930;5.168;2022-11-20T10:37:18;1.58;;;1.35;;
36575;SDS011;45700;50.930;5.168;2022-11-20T10:41:21;12.18;;;5.13;;
36575;SDS011;45700;50.930;5.168;2022-11-20T10:45:36;11.23;;;4.85;;
36575;SDS011;45700;50.930;5.168;2022-11-20T10:49:37;6.72;;;2.83;;
36575;SDS011;45700;50.930;5.168;2022-11-20T10:53:44;3.47;;;3.17;;
36575;SDS011;45700;50.930;5.168;2022-11-20T11:02:23;6.97;;;3.85;;
36575;SDS011;45700;50.930;5.168;2022-11-20T11:06:37;24.33;;;4.22;;
36575;SDS011;45700;50.930;5.168;2022-11-20T11:14:46;15.50;;;6.32;;
36575;SDS011;45700;50.930;5.168;2022-11-20T11:18:47;10.88;;;4.75;;
36575;SDS011;45700;50.930;5.168;2022-11-20T11:22:51;9.77;;;5.40;;
36575;SDS011;45700;50.930;5.168;2022-11-20T11:26:54;6.82;;;4.78;;
36575;SDS011;45700;50.930;5.168;2022-11-20T11:30:56;11.30;;;6.07;;
36575;SDS011;45700;50.930;5.168;2022-11-20T11:35:04;11.98;;;7.13;;
36575;SDS011;45700;50.930;5.168;2022-11-20T11:39:08;9.55;;;4.18;;
36575;SDS011;45700;50.930;5.168;2022-11-20T11:43:19;11.75;;;5.38;;
36575;SDS011;45700;50.930;5.168;2022-11-20T11:56:09;13.30;;;5.38;;
36575;SDS011;45700;50.930;5.168;2022-11-20T12:00:12;9.48;;;5.90;;
36575;SDS011;45700;50.930;5.168;2022-11-20T12:04:16;13.02;;;5.38;;
36575;SDS011;45700;50.930;5.168;2022-11-20T12:12:40;5.10;;;2.83;;
36575;SDS011;45700;50.930;5.168;2022-11-20T12:16:43;3.78;;;1.95;;
36575;SDS011;45700;50.930;5.168;2022-11-20T12:20:45;1.98;;;1.15;;
36575;SDS011;45700;50.930;5.168;2022-11-20T12:50:15;3.83;;;0.60;;
36575;SDS011;45700;50.930;5.168;2022-11-20T13:01:58;3.67;;;0.77;;
36575;SDS011;45700;50.930;5.168;2022-11-20T13:10:13;3.17;;;0.80;;
36575;SDS011;45700;50.930;5.168;2022-11-20T13:14:29;1.40;;;1.27;;
36575;SDS011;45700;50.930;5.168;2022-11-20T13:18:36;1.67;;;0.75;;
36575;SDS011;45700;50.930;5.168;2022-11-20T13:22:43;0.95;;;0.70;;
36575;SDS011;45700;50.930;5.168;2022-11-20T13:26:45;0.17;;;0.17;;
36575;SDS011;45700;50.930;5.168;2022-11-20T13:30:53;1.27;;;0.63;;
36575;SDS011;45700;50.930;5.168;2022-11-20T13:34:55;1.95;;;1.13;;
36575;SDS011;45700;50.930;5.168;2022-11-20T13:38:57;2.78;;;0.90;;
36575;SDS011;45700;50.930;5.168;2022-11-20T13:47:21;0.93;;;0.82;;
36575;SDS011;45700;50.930;5.168;2022-11-20T13:56:20;0.52;;;0.52;;
36575;SDS011;45700;50.930;5.168;2022-11-20T14:00:12;2.40;;;0.50;;
36575;SDS011;45700;50.930;5.168;2022-11-20T14:04:18;0.43;;;0.40;;
36575;SDS011;45700;50.930;5.168;2022-11-20T14:08:23;9.55;;;1.23;;
36575;SDS011;45700;50.930;5.168;2022-11-20T14:12:29;3.15;;;1.67;;
36575;SDS011;45700;50.930;5.168;2022-11-20T14:16:32;7.85;;;2.30;;
36575;SDS011;45700;50.930;5.168;2022-11-20T14:20:33;2.55;;;1.35;;
36575;SDS011;45700;50.930;5.168;2022-11-20T14:24:34;0.47;;;0.47;;
36575;SDS011;45700;50.930;5.168;2022-11-20T14:28:35;0.50;;;0.50;;
36575;SDS011;45700;50.930;5.168;2022-11-20T14:32:36;1.15;;;0.95;;
36575;SDS011;45700;50.930;5.168;2022-11-20T14:36:37;1.88;;;0.70;;
36575;SDS011;45700;50.930;5.168;2022-11-20T14:40:38;0.77;;;0.77;;
36575;SDS011;45700;50.930;5.168;2022-11-20T14:44:39;0.70;;;0.70;;
36575;SDS011;45700;50.930;5.168;2022-11-20T14:48:43;4.20;;;1.65;;
36575;SDS011;45700;50.930;5.168;2022-11-20T14:52:58;1.90;;;0.70;;
36575;SDS011;45700;50.930;5.168;2022-11-20T14:57:00;0.35;;;0.35;;
36575;SDS011;45700;50.930;5.168;2022-11-20T15:01:05;3.15;;;1.17;;
36575;SDS011;45700;50.930;5.168;2022-11-20T15:05:07;1.00;;;0.90;;
36575;SDS011;45700;50.930;5.168;2022-11-20T15:09:13;0.80;;;0.80;;
36575;SDS011;45700;50.930;5.168;2022-11-20T15:17:30;0.80;;;0.75;;
36575;SDS011;45700;50.930;5.168;2022-11-20T15:21:31;1.13;;;0.90;;
36575;SDS011;45700;50.930;5.168;2022-11-20T15:25:32;3.13;;;1.45;;
36575;SDS011;45700;50.930;5.168;2022-11-20T15:29:33;0.50;;;0.45;;
36575;SDS011;45700;50.930;5.168;2022-11-20T15:33:34;1.08;;;0.75;;
36575;SDS011;45700;50.930;5.168;2022-11-20T15:37:36;3.05;;;1.80;;
36575;SDS011;45700;50.930;5.168;2022-11-20T15:41:37;0.45;;;0.45;;
36575;SDS011;45700;50.930;5.168;2022-11-20T15:45:39;1.15;;;1.08;;
36575;SDS011;45700;50.930;5.168;2022-11-20T15:49:41;1.00;;;0.98;;
36575;SDS011;45700;50.930;5.168;2022-11-20T15:53:43;1.33;;;1.23;;
36575;SDS011;45700;50.930;5.168;2022-11-20T15:57:44;0.38;;;0.38;;
36575;SDS011;45700;50.930;5.168;2022-11-20T16:01:45;0.50;;;0.50;;
36575;SDS011;45700;50.930;5.168;2022-11-20T16:05:46;0.30;;;0.30;;
36575;SDS011;45700;50.930;5.168;2022-11-20T16:09:47;0.40;;;0.40;;
36575;SDS011;45700;50.930;5.168;2022-11-20T16:13:48;0.65;;;0.50;;
36575;SDS011;45700;50.930;5.168;2022-11-20T16:22:10;0.38;;;0.32;;
36575;SDS011;45700;50.930;5.168;2022-11-20T16:26:12;0.30;;;0.30;;
36575;SDS011;45700;50.930;5.168;2022-11-20T16:30:13;1.85;;;1.00;;
36575;SDS011;45700;50.930;5.168;2022-11-20T16:34:15;2.30;;;1.55;;
36575;SDS011;45700;50.930;5.168;2022-11-20T16:38:16;1.00;;;0.82;;
36575;SDS011;45700;50.930;5.168;2022-11-20T16:42:17;1.70;;;0.73;;
36575;SDS011;45700;50.930;5.168;2022-11-20T16:46:20;1.95;;;0.80;;
36575;SDS011;45700;50.930;5.168;2022-11-20T16:50:21;12.02;;;1.50;;
36575;SDS011;45700;50.930;5.168;2022-11-20T16:54:22;1.75;;;1.20;;
36575;SDS011;45700;50.930;5.168;2022-11-20T16:58:23;4.00;;;1.13;;
36575;SDS011;45700;50.930;5.168;2022-11-20T17:02:24;1.63;;;1.52;;
36575;SDS011;45700;50.930;5.168;2022-11-20T17:06:26;28.58;;;1.70;;
36575;SDS011;45700;50.930;5.168;2022-11-20T17:10:28;0.57;;;0.57;;
36575;SDS011;45700;50.930;5.168;2022-11-20T17:14:29;2.42;;;1.15;;
36575;SDS011;45700;50.930;5.168;2022-11-20T17:18:30;2.63;;;0.52;;
36575;SDS011;45700;50.930;5.168;2022-11-20T17:22:32;13.02;;;2.13;;
36575;SDS011;45700;50.930;5.168;2022-11-20T17:26:33;2.92;;;1.05;;
36575;SDS011;45700;50.930;5.168;2022-11-20T17:30:34;6.22;;;0.63;;
36575;SDS011;45700;50.930;5.168;2022-11-20T17:34:35;22.27;;;0.80;;
36575;SDS011;45700;50.930;5.168;2022-11-20T17:38:36;0.85;;;0.85;;
36575;SDS011;45700;50.930;5.168;2022-11-20T17:42:37;1.80;;;1.17;;
36575;SDS011;45700;50.930;5.168;2022-11-20T17:46:38;0.45;;;0.45;;
36575;SDS011;45700;50.930;5.168;2022-11-20T17:50:39;9.13;;;1.92;;
36575;SDS011;45700;50.930;5.168;2022-11-20T17:54:40;3.63;;;1.75;;
36575;SDS011;45700;50.930;5.168;2022-11-20T17:58:41;3.78;;;0.63;;
36575;SDS011;45700;50.930;5.168;2022-11-20T18:02:42;19.95;;;2.50;;
36575;SDS011;45700;50.930;5.168;2022-11-20T18:06:43;0.80;;;0.57;;
36575;SDS011;45700;50.930;5.168;2022-11-20T18:10:44;2.85;;;0.80;;
36575;SDS011;45700;50.930;5.168;2022-11-20T18:14:46;6.00;;;1.40;;
36575;SDS011;45700;50.930;5.168;2022-11-20T18:18:47;3.83;;;1.75;;
36575;SDS011;45700;50.930;5.168;2022-11-20T18:22:48;6.78;;;1.10;;
36575;SDS011;45700;50.930;5.168;2022-11-20T18:26:49;10.27;;;1.00;;
36575;SDS011;45700;50.930;5.168;2022-11-20T18:30:50;4.30;;;1.10;;
36575;SDS011;45700;50.930;5.168;2022-11-20T18:34:51;10.00;;;0.90;;
36575;SDS011;45700;50.930;5.168;2022-11-20T18:38:52;3.03;;;0.80;;
36575;SDS011;45700;50.930;5.168;2022-11-20T18:42:55;1.73;;;0.75;;
36575;SDS011;45700;50.930;5.168;2022-11-20T18:47:16;1.08;;;0.82;;
36575;SDS011;45700;50.930;5.168;2022-11-20T18:51:17;5.95;;;0.80;;
36575;SDS011;45700;50.930;5.168;2022-11-20T18:55:18;1.48;;;0.65;;
36575;SDS011;45700;50.930;5.168;2022-11-20T18:59:19;4.35;;;0.68;;
36575;SDS011;45700;50.930;5.168;2022-11-20T19:03:20;3.72;;;1.00;;
36575;SDS011;45700;50.930;5.168;2022-11-20T19:07:22;8.00;;;1.20;;
36575;SDS011;45700;50.930;5.168;2022-11-20T19:11:23;11.40;;;1.40;;
36575;SDS011;45700;50.930;5.168;2022-11-20T19:15:24;3.95;;;1.00;;
36575;SDS011;45700;50.930;5.168;2022-11-20T19:19:25;7.10;;;1.85;;
36575;SDS011;45700;50.930;5.168;2022-11-20T19:23:26;7.15;;;1.10;;
36575;SDS011;45700;50.930;5.168;2022-11-20T19:27:27;5.55;;;0.98;;
36575;SDS011;45700;50.930;5.168;2022-11-20T19:31:28;7.03;;;1.30;;
36575;SDS011;45700;50.930;5.168;2022-11-20T19:35:29;5.95;;;1.40;;
36575;SDS011;45700;50.930;5.168;2022-11-20T19:39:30;12.45;;;1.67;;
36575;SDS011;45700;50.930;5.168;2022-11-20T19:43:31;5.85;;;1.83;;
36575;SDS011;45700;50.930;5.168;2022-11-20T19:47:32;8.43;;;2.72;;
36575;SDS011;45700;50.930;5.168;2022-11-20T19:51:33;5.95;;;1.88;;
36575;SDS011;45700;50.930;5.168;2022-11-20T19:55:34;11.93;;;3.00;;
36575;SDS011;45700;50.930;5.168;2022-11-20T19:59:35;9.63;;;2.13;;
36575;SDS011;45700;50.930;5.168;2022-11-20T20:03:37;9.50;;;1.67;;
36575;SDS011;45700;50.930;5.168;2022-11-20T20:07:38;3.05;;;1.90;;
36575;SDS011;45700;50.930;5.168;2022-11-20T20:11:40;10.57;;;2.17;;
36575;SDS011;45700;50.930;5.168;2022-11-20T20:15:44;7.80;;;2.67;;
36575;SDS011;45700;50.930;5.168;2022-11-20T20:19:45;7.45;;;2.05;;
36575;SDS011;45700;50.930;5.168;2022-11-20T20:23:49;10.32;;;2.45;;
36575;SDS011;45700;50.930;5.168;2022-11-20T20:27:50;11.55;;;1.95;;
36575;SDS011;45700;50.930;5.168;2022-11-20T20:31:51;9.57;;;2.35;;
36575;SDS011;45700;50.930;5.168;2022-11-20T20:35:52;5.95;;;2.33;;
36575;SDS011;45700;50.930;5.168;2022-11-20T20:39:53;5.68;;;2.28;;
36575;SDS011;45700;50.930;5.168;2022-11-20T20:43:54;9.55;;;2.78;;
36575;SDS011;45700;50.930;5.168;2022-11-20T20:52:14;11.68;;;2.65;;
36575;SDS011;45700;50.930;5.168;2022-11-20T20:56:15;15.65;;;2.50;;
36575;SDS011;45700;50.930;5.168;2022-11-20T21:00:17;15.73;;;2.38;;
36575;SDS011;45700;50.930;5.168;2022-11-20T21:04:18;11.57;;;2.72;;
36575;SDS011;45700;50.930;5.168;2022-11-20T21:08:19;11.55;;;2.53;;
36575;SDS011;45700;50.930;5.168;2022-11-20T21:12:20;16.52;;;2.17;;
36575;SDS011;45700;50.930;5.168;2022-11-20T21:16:21;12.27;;;2.17;;
36575;SDS011;45700;50.930;5.168;2022-11-20T21:20:23;7.45;;;2.25;;
36575;SDS011;45700;50.930;5.168;2022-11-20T21:24:43;11.10;;;2.38;;
36575;SDS011;45700;50.930;5.168;2022-11-20T21:28:45;7.32;;;1.85;;
36575;SDS011;45700;50.930;5.168;2022-11-20T21:32:50;10.75;;;2.25;;
36575;SDS011;45700;50.930;5.168;2022-11-20T21:36:51;8.82;;;1.75;;
36575;SDS011;45700;50.930;5.168;2022-11-20T21:40:52;8.13;;;1.90;;
36575;SDS011;45700;50.930;5.168;2022-11-20T21:44:53;2.03;;;1.50;;
36575;SDS011;45700;50.930;5.168;2022-11-20T21:48:54;16.92;;;2.33;;
36575;SDS011;45700;50.930;5.168;2022-11-20T21:52:55;13.50;;;2.33;;
36575;SDS011;45700;50.930;5.168;2022-11-20T21:56:56;10.68;;;2.15;;
36575;SDS011;45700;50.930;5.168;2022-11-20T22:00:57;4.55;;;1.80;;
36575;SDS011;45700;50.930;5.168;2022-11-20T22:04:58;6.68;;;1.73;;
36575;SDS011;45700;50.930;5.168;2022-11-20T22:08:59;9.07;;;2.42;;
36575;SDS011;45700;50.930;5.168;2022-11-20T22:13:00;7.68;;;1.65;;
36575;SDS011;45700;50.930;5.168;2022-11-20T22:17:20;7.40;;;2.35;;
36575;SDS011;45700;50.930;5.168;2022-11-20T22:21:41;7.40;;;2.00;;
36575;SDS011;45700;50.930;5.168;2022-11-20T22:25:42;11.85;;;2.63;;
36575;SDS011;45700;50.930;5.168;2022-11-20T22:29:43;9.52;;;1.95;;
36575;SDS011;45700;50.930;5.168;2022-11-20T22:33:44;7.03;;;2.28;;
36575;SDS011;45700;50.930;5.168;2022-11-20T22:37:48;8.60;;;2.00;;
36575;SDS011;45700;50.930;5.168;2022-11-20T22:41:49;16.67;;;2.58;;
36575;SDS011;45700;50.930;5.168;2022-11-20T22:45:50;6.78;;;1.90;;
36575;SDS011;45700;50.930;5.168;2022-11-20T22:49:51;13.15;;;2.05;;
36575;SDS011;45700;50.930;5.168;2022-11-20T22:53:52;15.80;;;2.30;;
36575;SDS011;45700;50.930;5.168;2022-11-20T22:57:53;11.18;;;1.63;;
36575;SDS011;45700;50.930;5.168;2022-11-20T23:01:54;7.10;;;1.85;;
36575;SDS011;45700;50.930;5.168;2022-11-20T23:05:57;8.63;;;1.60;;
36575;SDS011;45700;50.930;5.168;2022-11-20T23:09:58;11.20;;;2.90;;
36575;SDS011;45700;50.930;5.168;2022-11-20T23:14:00;17.25;;;2.08;;
36575;SDS011;45700;50.930;5.168;2022-11-20T23:18:01;8.73;;;2.00;;
36575;SDS011;45700;50.930;5.168;2022-11-20T23:22:02;6.75;;;1.63;;
36575;SDS011;45700;50.930;5.168;2022-11-20T23:26:05;4.63;;;1.30;;
36575;SDS011;45700;50.930;5.168;2022-11-20T23:30:06;4.95;;;1.70;;
36575;SDS011;45700;50.930;5.168;2022-11-20T23:34:07;9.52;;;2.30;;
36575;SDS011;45700;50.930;5.168;2022-11-20T23:38:08;10.30;;;1.88;;
36575;SDS011;45700;50.930;5.168;2022-11-20T23:42:09;4.10;;;1.52;;
36575;SDS011;45700;50.930;5.168;2022-11-20T23:46:12;4.68;;;1.50;;
36575;SDS011;45700;50.930;5.168;2022-11-20T23:50:13;6.10;;;1.25;;
36575;SDS011;45700;50.930;5.168;2022-11-20T23:54:14;6.78;;;2.00;;
36575;SDS011;45700;50.930;5.168;2022-11-20T23:58:15;7.00;;;1.40;;
